createdAt,value
2023-01-27T00:04:44.216Z,5.3
2023-01-27T00:09:16.559Z,2.6
2023-01-27T00:14:33.005Z,6.3
2023-01-27T00:19:53.372Z,7.8
2023-01-27T00:24:45.758Z,5.7
2023-01-27T00:31:06.106Z,6.4
2023-01-27T00:35:00.219Z,4.1
2023-01-27T00:40:06.873Z,7.6
2023-01-27T00:45:13.228Z,7.8
2023-01-27T00:50:23.225Z,4.0
2023-01-27T00:55:29.577Z,8.1
2023-01-27T01:00:35.964Z,8.1
2023-01-27T01:05:42.462Z,6.1
2023-01-27T01:10:50.406Z,7.5
2023-01-27T01:17:12.970Z,7.3
2023-01-27T01:21:03.232Z,6.8
2023-01-27T01:26:09.595Z,7.6
2023-01-27T01:31:16.039Z,6.5
2023-01-27T01:36:22.421Z,3.4
2023-01-27T01:41:28.877Z,7.8
2023-01-27T01:46:49.446Z,6.3
2023-01-27T01:52:03.620Z,6.1
2023-01-27T01:56:49.937Z,7.6
2023-01-27T02:02:16.595Z,6.0
2023-01-27T02:07:02.897Z,7.3
2023-01-27T02:12:09.357Z,7.7
2023-01-27T02:17:15.715Z,5.4
2023-01-27T02:22:45.938Z,7.8
2023-01-27T02:28:32.794Z,6.7
2023-01-27T02:32:40.257Z,8.3
2023-01-27T02:37:45.429Z,9.4
2023-01-27T02:42:51.814Z,1.4
2023-01-27T02:47:57.247Z,7.0
2023-01-27T02:53:04.652Z,7.4
2023-01-27T02:58:01.080Z,8.0
2023-01-27T03:03:17.513Z,7.1
2023-01-27T03:08:23.858Z,5.7
2023-01-27T03:13:30.263Z,6.9
2023-01-27T03:18:36.721Z,6.2
2023-01-27T03:23:43.058Z,5.1
2023-01-27T03:28:49.464Z,3.7
2023-01-27T03:39:02.254Z,5.2
2023-01-27T03:43:58.604Z,11.4
2023-01-27T03:49:15.043Z,8.3
2023-01-27T03:54:21.423Z,6.3
2023-01-27T03:59:51.873Z,8.1
2023-01-27T04:04:34.205Z,6.2
2023-01-27T04:10:04.714Z,8.1
2023-01-27T04:15:07.040Z,3.8
2023-01-27T04:19:53.404Z,8.1
2023-01-27T04:24:59.769Z,6.1
2023-01-27T04:30:06.275Z,5.4
2023-01-27T04:35:13.023Z,6.4
2023-01-27T04:43:07.467Z,7.4
2023-01-27T04:45:28.785Z,8.4
2023-01-27T04:50:55.177Z,4.5
2023-01-27T04:55:41.464Z,4.5
2023-01-27T05:00:47.966Z,4.0
2023-01-27T05:05:44.315Z,5.3
2023-01-27T05:11:00.748Z,4.5
2023-01-27T05:16:07.276Z,3.7
2023-01-27T05:21:13.583Z,5.2
2023-01-27T05:26:19.962Z,4.3
2023-01-27T05:31:26.608Z,5.6
2023-01-27T05:36:52.752Z,9.0
2023-01-27T05:41:39.119Z,5.4
2023-01-27T05:46:45.557Z,8.0
2023-01-27T05:51:55.505Z,8.5
2023-01-27T05:57:01.886Z,5.6
2023-01-27T06:02:08.510Z,4.5
2023-01-27T06:07:58.897Z,3.2
2023-01-27T06:12:21.324Z,4.1
2023-01-27T06:17:27.721Z,4.6
2023-01-27T06:22:34.070Z,2.4
2023-01-27T06:27:40.472Z,3.2
2023-01-27T06:32:46.875Z,3.1
2023-01-27T06:37:52.216Z,5.1
2023-01-27T06:42:59.583Z,1.7
2023-01-27T06:48:06.002Z,2.8
2023-01-27T06:54:14.457Z,1.4
2023-01-27T06:58:18.751Z,1.5
2023-01-27T07:10:19.898Z,3.3
2023-01-27T07:14:15.172Z,3.1
2023-01-27T07:19:21.570Z,2.3
2023-01-27T07:24:18.051Z,3.8
2023-01-27T07:29:24.369Z,2.6
2023-01-27T07:34:40.751Z,3.1
2023-01-27T07:39:47.157Z,3.0
2023-01-27T07:44:53.576Z,4.3
2023-01-27T07:49:59.942Z,3.5
2023-01-27T07:55:06.337Z,6.3
2023-01-27T08:00:13.252Z,5.9
2023-01-27T08:05:19.120Z,4.7
2023-01-27T08:10:25.497Z,6.2
2023-01-27T08:15:31.893Z,5.5
2023-01-27T08:21:03.844Z,2.5
2023-01-27T08:25:46.220Z,4.3
2023-01-27T08:30:56.183Z,6.8
2023-01-27T08:35:52.679Z,7.2
2023-01-27T08:41:23.123Z,5.8
2023-01-27T08:46:15.559Z,4.6
2023-01-27T08:51:25.425Z,6.4
2023-01-27T08:56:21.826Z,6.4
2023-01-27T09:01:38.309Z,5.7
2023-01-27T09:07:08.796Z,4.5
2023-01-27T09:11:51.173Z,5.1
2023-01-27T09:16:57.661Z,4.7
2023-01-27T09:22:07.574Z,4.6
2023-01-27T09:27:03.927Z,5.3
2023-01-27T09:32:23.918Z,5.3
2023-01-27T09:37:20.247Z,6.1
2023-01-27T09:42:36.663Z,6.9
2023-01-27T09:47:43.072Z,5.7
2023-01-27T09:52:49.433Z,9.2
2023-01-27T09:57:55.775Z,5.0
2023-01-27T10:03:36.286Z,6.6
2023-01-27T10:08:43.659Z,5.7
2023-01-27T10:13:50.139Z,5.9
2023-01-27T10:19:20.701Z,3.8
2023-01-27T10:24:03.125Z,3.8
2023-01-27T10:29:09.444Z,4.1
2023-01-27T10:34:15.823Z,3.5
2023-01-27T10:39:23.816Z,4.7
2023-01-27T10:44:30.153Z,3.2
2023-01-27T10:50:00.571Z,2.4
2023-01-27T10:54:43.140Z,2.7
2023-01-27T11:00:10.906Z,6.0
2023-01-27T11:04:56.073Z,0.5
2023-01-27T11:10:06.095Z,4.4
2023-01-27T11:15:02.651Z,3.9
2023-01-27T11:20:42.895Z,2.5
2023-01-27T11:25:25.232Z,2.5
2023-01-27T11:30:32.275Z,1.2
2023-01-27T11:35:38.759Z,3.3
2023-01-27T11:40:45.340Z,3.0
2023-01-27T11:45:51.722Z,3.0
2023-01-27T11:50:59.697Z,2.3
2023-01-27T11:56:06.182Z,1.8
2023-01-27T12:01:12.537Z,1.2
2023-01-27T12:06:18.933Z,0.6
2023-01-27T12:11:26.935Z,2.0
2023-01-27T12:16:33.256Z,1.4
2023-01-27T12:21:39.648Z,1.4
2023-01-27T12:26:46.049Z,1.3
2023-01-27T12:31:56.030Z,1.3
2023-01-27T12:37:02.349Z,1.3
2023-01-27T12:42:10.378Z,2.1
2023-01-27T12:47:16.789Z,2.1
2023-01-27T12:52:23.164Z,2.8
2023-01-27T12:57:29.557Z,2.8
2023-01-27T13:02:26.003Z,0.7
2023-01-27T13:07:42.429Z,0.7
2023-01-27T13:13:12.887Z,2.1
2023-01-27T13:17:45.189Z,2.4
2023-01-27T13:23:01.572Z,2.4
2023-01-27T13:28:07.946Z,1.5
2023-01-27T13:33:04.328Z,1.5
2023-01-27T13:38:20.704Z,1.5
2023-01-27T13:43:30.690Z,1.5
2023-01-27T13:48:27.079Z,1.5
2023-01-27T13:53:43.446Z,1.5
2023-01-27T13:58:49.838Z,1.2
2023-01-27T14:03:56.227Z,1.2
2023-01-27T14:09:04.142Z,1.8
2023-01-27T14:14:10.626Z,1.8
2023-01-27T14:19:17.130Z,1.8
2023-01-27T14:24:23.531Z,1.8
2023-01-27T14:29:29.862Z,1.8
2023-01-27T14:34:36.266Z,3.4
2023-01-27T14:39:42.618Z,2.4
2023-01-27T14:45:32.096Z,1.8
2023-01-27T14:49:55.436Z,2.7
2023-01-27T14:55:01.822Z,4.0
2023-01-27T15:00:08.313Z,4.2
2023-01-27T15:05:04.680Z,4.2
2023-01-27T15:10:21.045Z,13.2
2023-01-27T15:16:38.564Z,4.0
2023-01-27T15:20:33.842Z,4.0
2023-01-27T15:25:40.256Z,3.2
2023-01-27T15:30:46.702Z,3.2
2023-01-27T15:35:53.212Z,6.6
2023-01-27T15:40:59.576Z,4.2
2023-01-27T15:46:06.016Z,4.2
2023-01-27T15:51:12.342Z,5.8
2023-01-27T15:56:18.776Z,5.8
2023-01-27T16:01:49.276Z,4.3
2023-01-27T16:06:55.731Z,4.3
2023-01-27T16:12:02.130Z,4.4
2023-01-27T16:16:34.506Z,3.7
2023-01-27T16:23:02.923Z,6.0
2023-01-27T16:26:57.204Z,6.0
2023-01-27T16:32:03.659Z,5.6
2023-01-27T16:37:34.236Z,2.7
2023-01-27T16:42:16.733Z,0.2
2023-01-27T16:47:23.085Z,0.2
2023-01-27T16:52:41.353Z,0.2
2023-01-27T16:57:35.953Z,3.1
2023-01-27T17:02:42.427Z,2.2
2023-01-27T17:07:48.701Z,2.9
2023-01-27T17:12:55.675Z,4.2
2023-01-27T17:18:02.038Z,2.7
2023-01-27T17:23:08.504Z,5.8
2023-01-27T17:28:14.908Z,4.4
2023-01-27T17:33:24.828Z,4.7
2023-01-27T17:38:20.197Z,9.7
2023-01-27T17:44:11.695Z,11.0
2023-01-27T17:49:19.099Z,4.0
2023-01-27T17:54:15.583Z,4.4
2023-01-27T17:59:32.118Z,5.2
2023-01-27T18:04:38.491Z,5.8
2023-01-27T18:09:44.868Z,5.4
2023-01-27T18:14:51.366Z,6.5
2023-01-27T18:19:57.736Z,6.6
2023-01-27T18:25:04.136Z,5.5
2023-01-27T18:30:10.551Z,5.5
2023-01-27T18:35:16.918Z,5.2
2023-01-27T18:40:23.292Z,5.2
2023-01-27T18:45:29.707Z,1.9
2023-01-27T18:50:36.092Z,6.1
2023-01-27T18:55:42.455Z,6.5
2023-01-27T19:00:50.545Z,7.5
2023-01-27T19:05:56.844Z,6.6
2023-01-27T19:11:03.232Z,9.1
2023-01-27T19:16:09.719Z,9.3
2023-01-27T19:21:16.614Z,10.2
2023-01-27T19:26:23.033Z,6.1
2023-01-27T19:31:29.455Z,8.5
2023-01-27T19:36:59.827Z,9.5
2023-01-27T19:42:03.779Z,7.9
2023-01-27T19:46:50.234Z,17.9
2023-01-27T19:51:56.661Z,7.9
2023-01-27T19:57:27.112Z,8.4
2023-01-27T20:02:09.493Z,8.7
2023-01-27T20:07:39.876Z,2.5
2023-01-27T20:12:43.826Z,3.5
2023-01-27T20:17:30.212Z,5.2
2023-01-27T20:22:36.599Z,7.1
2023-01-27T20:28:07.216Z,8.6
2023-01-27T20:32:56.296Z,6.0
2023-01-27T20:37:56.821Z,7.0
2023-01-27T20:43:04.296Z,4.2
2023-01-27T20:48:10.695Z,4.4
2023-01-27T20:53:17.070Z,5.9
2023-01-27T20:58:23.577Z,5.3
2023-01-27T21:03:30.036Z,7.0
2023-01-27T21:09:00.463Z,8.1
2023-01-27T21:13:32.767Z,7.4
2023-01-27T21:18:49.228Z,7.9
2023-01-27T21:24:20.188Z,7.9
2023-01-27T21:29:02.369Z,9.4
2023-01-27T21:34:08.794Z,7.6
2023-01-27T21:39:15.252Z,7.0
2023-01-27T21:44:21.649Z,8.9
2023-01-27T21:49:48.227Z,8.4
2023-01-27T21:54:34.597Z,9.7
2023-01-27T21:59:41.006Z,6.9
2023-01-27T22:04:47.518Z,10.3
2023-01-27T22:09:53.809Z,7.3
2023-01-27T22:15:00.164Z,9.3
2023-01-27T22:20:06.550Z,8.9
2023-01-27T22:25:13.664Z,8.5
2023-01-27T22:30:19.435Z,10.5
2023-01-27T22:35:25.827Z,8.2
2023-01-27T22:40:32.292Z,6.7
2023-01-27T22:45:38.649Z,9.5
2023-01-27T22:50:45.005Z,8.9
2023-01-27T22:56:15.454Z,11.0
2023-01-27T23:00:57.835Z,9.0
2023-01-27T23:06:04.214Z,7.0
2023-01-27T23:11:00.574Z,9.6
2023-01-27T23:16:17.083Z,9.0
2023-01-27T23:21:23.345Z,9.4
2023-01-27T23:26:49.764Z,9.6
2023-01-27T23:31:36.360Z,10.6
2023-01-27T23:36:42.659Z,7.5
2023-01-27T23:41:49.120Z,11.8
2023-01-27T23:47:15.568Z,8.7
2023-01-27T23:52:05.566Z,10.5
2023-01-27T23:57:12.354Z,9.7
